createdAt,value
2022-08-03T00:01:27.677Z,65.50
2022-08-03T00:03:54.648Z,67.40
2022-08-03T00:06:21.539Z,67.40
2022-08-03T00:08:48.437Z,66.70
2022-08-03T00:11:15.324Z,66.10
2022-08-03T00:13:42.229Z,65.80
2022-08-03T00:16:10.693Z,66.20
2022-08-03T00:18:38.228Z,67.00
2022-08-03T00:21:05.588Z,66.40
2022-08-03T00:23:50.822Z,66.70
2022-08-03T00:26:22.536Z,66.60
2022-08-03T00:28:50.048Z,66.90
2022-08-03T00:31:28.379Z,67.00
2022-08-03T00:34:04.455Z,67.00
2022-08-03T00:36:31.412Z,67.10
2022-08-03T00:38:58.385Z,67.70
2022-08-03T00:41:25.360Z,66.60
2022-08-03T00:43:52.290Z,66.50
2022-08-03T00:46:21.730Z,66.00
2022-08-03T00:48:53.326Z,66.20
2022-08-03T00:51:24.020Z,67.90
2022-08-03T00:53:51.320Z,68.20
2022-08-03T00:56:18.431Z,68.00
2022-08-03T00:58:46.598Z,67.60
2022-08-03T01:01:14.894Z,68.10
2022-08-03T01:03:42.275Z,68.10
2022-08-03T01:06:24.861Z,67.70
2022-08-03T01:08:59.011Z,66.60
2022-08-03T01:12:01.069Z,66.90
2022-08-03T01:14:38.649Z,67.40
2022-08-03T01:17:10.039Z,67.90
2022-08-03T01:19:44.970Z,67.70
2022-08-03T01:22:40.354Z,67.60
2022-08-03T01:25:40.846Z,67.50
2022-08-03T01:28:38.623Z,67.00
2022-08-03T01:31:08.506Z,66.10
2022-08-03T01:33:46.954Z,65.80
2022-08-03T01:36:17.856Z,66.40
2022-08-03T01:38:53.991Z,66.40
2022-08-03T01:41:25.558Z,67.10
2022-08-03T01:43:55.053Z,67.20
2022-08-03T01:46:47.778Z,68.90
2022-08-03T01:49:17.836Z,68.90
2022-08-03T01:52:02.859Z,69.00
2022-08-03T01:54:35.509Z,68.70
2022-08-03T01:57:04.017Z,68.80
2022-08-03T01:59:34.515Z,68.30
2022-08-03T02:02:28.277Z,69.00
2022-08-03T02:04:52.841Z,68.20
2022-08-03T02:07:20.566Z,67.60
2022-08-03T02:09:51.722Z,66.90
2022-08-03T02:12:19.265Z,65.70
2022-08-03T02:14:48.685Z,67.60
2022-08-03T02:17:16.581Z,67.80
2022-08-03T02:19:44.525Z,67.70
2022-08-03T02:22:13.276Z,67.70
2022-08-03T02:24:40.728Z,68.30
2022-08-03T02:27:16.288Z,67.60
2022-08-03T02:29:49.022Z,67.00
2022-08-03T02:32:20.502Z,67.00
2022-08-03T02:34:50.902Z,66.70
2022-08-03T02:37:20.076Z,68.00
2022-08-03T02:39:49.209Z,68.10
2022-08-03T02:42:18.948Z,68.80
2022-08-03T02:44:49.978Z,68.40
2022-08-03T02:47:21.035Z,68.10
2022-08-03T02:49:52.209Z,67.30
2022-08-03T02:52:23.474Z,67.80
2022-08-03T02:54:54.921Z,67.50
2022-08-03T02:57:23.311Z,68.20
2022-08-03T02:59:51.712Z,68.70
2022-08-03T03:02:20.065Z,68.50
2022-08-03T03:05:50.963Z,68.40
2022-08-03T03:07:51.501Z,68.40
2022-08-03T03:10:21.935Z,68.80
2022-08-03T03:12:52.391Z,69.40
2022-08-03T03:15:19.468Z,69.80
2022-08-03T03:17:48.335Z,70.20
2022-08-03T03:20:15.901Z,69.60
2022-08-03T03:22:58.451Z,69.40
2022-08-03T03:25:25.443Z,69.60
2022-08-03T03:27:52.670Z,69.60
2022-08-03T03:30:19.740Z,70.40
2022-08-03T03:32:46.595Z,70.10
2022-08-03T03:35:14.305Z,69.70
2022-08-03T03:37:41.203Z,69.00
2022-08-03T03:40:09.153Z,68.80
2022-08-03T03:42:36.208Z,68.50
2022-08-03T03:45:07.627Z,67.80
2022-08-03T03:47:35.689Z,67.30
2022-08-03T03:50:06.841Z,68.90
2022-08-03T03:52:34.130Z,69.50
2022-08-03T03:55:01.845Z,69.80
2022-08-03T03:57:29.485Z,69.80
2022-08-03T03:59:56.502Z,69.10
2022-08-03T04:02:23.861Z,69.40
2022-08-03T04:05:09.472Z,69.80
2022-08-03T04:08:10.232Z,69.60
2022-08-03T04:10:58.405Z,69.60
2022-08-03T04:13:31.200Z,70.60
2022-08-03T04:15:59.102Z,71.90
2022-08-03T04:18:28.264Z,71.60
2022-08-03T04:21:00.675Z,71.80
2022-08-03T04:23:29.872Z,71.50
2022-08-03T04:25:57.653Z,71.50
2022-08-03T04:28:31.239Z,72.80
2022-08-03T04:31:00.692Z,73.00
2022-08-03T04:33:31.095Z,72.60
2022-08-03T04:36:03.599Z,72.00
2022-08-03T04:38:34.888Z,71.10
2022-08-03T04:41:01.959Z,71.10
2022-08-03T04:43:30.752Z,70.20
2022-08-03T04:45:59.327Z,69.60
2022-08-03T04:48:26.510Z,69.90
2022-08-03T04:50:54.727Z,69.20
2022-08-03T04:53:21.927Z,68.70
2022-08-03T04:55:50.288Z,70.00
2022-08-03T04:58:17.297Z,69.70
2022-08-03T05:00:45.662Z,70.50
2022-08-03T05:03:23.574Z,71.10
2022-08-03T05:05:53.006Z,70.10
2022-08-03T05:08:28.139Z,70.50
2022-08-03T05:10:55.934Z,70.20
2022-08-03T05:13:26.062Z,69.70
2022-08-03T05:15:53.007Z,69.00
2022-08-03T05:18:19.945Z,68.40
2022-08-03T05:20:47.317Z,67.60
2022-08-03T05:23:14.305Z,66.60
2022-08-03T05:25:49.713Z,66.00
2022-08-03T05:28:17.311Z,65.80
2022-08-03T05:30:44.658Z,65.70
2022-08-03T05:33:11.727Z,65.70
2022-08-03T05:36:00.766Z,65.50
2022-08-03T05:38:33.142Z,64.50
2022-08-03T05:41:21.590Z,62.40
2022-08-03T05:43:48.275Z,60.90
2022-08-03T05:46:15.454Z,61.00
2022-08-03T05:48:42.807Z,59.70
2022-08-03T05:51:11.656Z,59.60
2022-08-03T05:53:39.911Z,59.50
2022-08-03T05:56:14.203Z,59.60
2022-08-03T05:58:47.225Z,59.40
2022-08-03T06:01:16.047Z,58.40
2022-08-03T06:03:43.143Z,58.00
2022-08-03T06:06:11.291Z,56.70
2022-08-03T06:08:38.318Z,56.20
2022-08-03T06:11:05.253Z,56.00
2022-08-03T06:13:32.292Z,55.60
2022-08-03T06:15:59.154Z,55.10
2022-08-03T06:18:26.046Z,54.70
2022-08-03T06:20:54.195Z,54.60
2022-08-03T06:23:25.314Z,54.30
2022-08-03T06:26:09.724Z,53.90
2022-08-03T06:28:52.831Z,53.40
2022-08-03T06:31:23.860Z,53.10
2022-08-03T06:34:33.361Z,52.80
2022-08-03T06:36:37.779Z,51.50
2022-08-03T06:39:06.510Z,52.10
2022-08-03T06:41:37.377Z,53.10
2022-08-03T06:44:08.251Z,52.90
2022-08-03T06:46:37.131Z,52.00
2022-08-03T06:49:04.222Z,51.50
2022-08-03T06:52:04.086Z,51.00
2022-08-03T06:54:18.285Z,49.30
2022-08-03T06:56:45.167Z,48.40
2022-08-03T07:00:09.904Z,47.50
2022-08-03T07:01:58.922Z,47.10
2022-08-03T07:04:25.810Z,46.20
2022-08-03T07:06:52.638Z,46.80
2022-08-03T07:09:19.523Z,46.50
2022-08-03T07:11:46.432Z,47.90
2022-08-03T07:14:13.775Z,49.30
2022-08-03T07:16:40.788Z,49.50
2022-08-03T07:19:07.659Z,49.60
2022-08-03T07:21:34.547Z,49.90
2022-08-03T07:24:01.418Z,49.80
2022-08-03T07:26:28.518Z,49.40
2022-08-03T07:28:55.397Z,50.00
2022-08-03T07:31:22.354Z,50.20
2022-08-03T07:33:49.234Z,49.80
2022-08-03T07:36:16.180Z,50.00
2022-08-03T07:38:43.048Z,49.90
2022-08-03T07:41:09.952Z,50.00
2022-08-03T07:43:36.803Z,49.80
2022-08-03T07:46:03.665Z,49.70
2022-08-03T07:48:30.771Z,49.30
2022-08-03T07:50:57.687Z,49.30
2022-08-03T07:53:24.599Z,49.30
2022-08-03T07:55:51.819Z,49.80
2022-08-03T07:58:23.681Z,49.40
2022-08-03T08:00:53.172Z,50.00
2022-08-03T08:03:22.187Z,48.90
2022-08-03T08:05:49.775Z,49.40
2022-08-03T08:08:16.747Z,49.20
2022-08-03T08:10:58.094Z,49.20
2022-08-03T08:13:25.957Z,49.10
2022-08-03T08:15:52.832Z,48.50
2022-08-03T08:18:19.839Z,48.60
2022-08-03T08:20:46.826Z,48.80
2022-08-03T08:23:41.735Z,48.90
2022-08-03T08:26:00.612Z,49.10
2022-08-03T08:28:32.571Z,49.20
2022-08-03T08:31:01.213Z,48.90
2022-08-03T08:33:37.635Z,48.90
2022-08-03T08:36:14.743Z,48.70
2022-08-03T08:38:42.696Z,49.40
2022-08-03T08:41:11.316Z,48.30
2022-08-03T08:43:38.592Z,48.20
2022-08-03T08:46:08.401Z,48.10
2022-08-03T08:48:40.459Z,48.60
2022-08-03T08:51:09.048Z,48.60
2022-08-03T08:53:40.404Z,48.30
2022-08-03T08:56:10.472Z,48.50
2022-08-03T08:58:41.897Z,48.50
2022-08-03T09:01:09.019Z,48.10
2022-08-03T09:03:36.538Z,47.90
2022-08-03T09:06:03.782Z,48.10
2022-08-03T09:08:32.112Z,48.20
2022-08-03T09:10:59.250Z,48.10
2022-08-03T09:13:26.555Z,48.60
2022-08-03T09:16:14.270Z,48.40
2022-08-03T09:18:43.050Z,48.40
2022-08-03T09:21:33.850Z,48.60
2022-08-03T09:24:04.735Z,48.60
2022-08-03T09:26:35.017Z,48.50
2022-08-03T09:29:09.600Z,48.50
2022-08-03T09:31:45.702Z,48.60
2022-08-03T09:34:15.162Z,48.10
2022-08-03T09:36:46.638Z,48.10
2022-08-03T09:39:30.131Z,47.60
2022-08-03T09:42:11.630Z,48.00
2022-08-03T09:44:45.408Z,48.50
2022-08-03T09:47:14.736Z,47.50
2022-08-03T09:49:56.426Z,47.70
2022-08-03T09:52:39.136Z,47.70
2022-08-03T09:56:33.433Z,47.70
2022-08-03T09:58:09.476Z,47.40
2022-08-03T10:00:56.390Z,47.80
2022-08-03T10:03:25.141Z,47.80
2022-08-03T10:05:56.082Z,47.80
2022-08-03T10:08:26.172Z,48.30
2022-08-03T10:10:58.547Z,48.00
2022-08-03T10:13:25.489Z,47.50
2022-08-03T10:16:23.785Z,47.30
2022-08-03T10:18:39.438Z,47.30
2022-08-03T10:21:10.411Z,48.20
2022-08-03T10:23:38.813Z,47.70
2022-08-03T10:26:08.181Z,47.70
2022-08-03T10:28:42.791Z,47.60
2022-08-03T10:31:13.064Z,47.50
2022-08-03T10:33:50.774Z,46.90
2022-08-03T10:36:23.002Z,47.10
2022-08-03T10:38:53.078Z,47.10
2022-08-03T10:41:21.949Z,46.70
2022-08-03T10:44:17.566Z,46.80
2022-08-03T10:46:45.618Z,46.60
2022-08-03T10:49:32.821Z,46.60
2022-08-03T10:52:13.775Z,46.50
2022-08-03T10:55:09.995Z,46.40
2022-08-03T10:57:58.856Z,45.80
2022-08-03T11:00:28.283Z,46.50
2022-08-03T11:03:14.389Z,46.90
2022-08-03T11:05:47.384Z,47.10
2022-08-03T11:08:28.729Z,46.40
2022-08-03T11:11:28.643Z,46.60
2022-08-03T11:14:03.274Z,46.20
2022-08-03T11:16:35.618Z,46.40
2022-08-03T11:19:08.052Z,46.60
2022-08-03T11:21:50.233Z,46.50
2022-08-03T11:24:43.332Z,47.10
2022-08-03T11:27:19.959Z,46.60
2022-08-03T11:30:02.323Z,47.50
2022-08-03T11:32:38.512Z,47.20
2022-08-03T11:35:14.220Z,47.30
2022-08-03T11:38:04.411Z,47.10
2022-08-03T11:40:37.288Z,46.60
2022-08-03T11:43:05.364Z,46.40
2022-08-03T11:45:32.449Z,45.60
2022-08-03T11:48:03.799Z,46.00
2022-08-03T11:50:37.989Z,46.40
2022-08-03T11:53:06.961Z,47.00
2022-08-03T11:55:35.474Z,47.00
2022-08-03T11:59:17.465Z,46.10
2022-08-03T12:00:50.379Z,46.10
2022-08-03T12:03:20.288Z,45.40
2022-08-03T12:05:51.019Z,45.70
2022-08-03T12:08:33.126Z,46.10
2022-08-03T12:11:02.269Z,46.90
2022-08-03T12:14:37.354Z,46.80
2022-08-03T12:16:34.164Z,47.00
2022-08-03T12:19:06.667Z,46.50
2022-08-03T12:21:33.682Z,47.00
2022-08-03T12:24:05.091Z,46.60
2022-08-03T12:26:57.212Z,46.60
2022-08-03T12:29:27.351Z,46.00
2022-08-03T12:31:56.041Z,46.40
2022-08-03T12:34:23.373Z,46.50
2022-08-03T12:36:52.340Z,46.20
2022-08-03T12:39:25.199Z,46.20
2022-08-03T12:41:56.765Z,46.40
2022-08-03T12:44:34.817Z,46.20
2022-08-03T12:47:03.172Z,46.00
2022-08-03T12:49:54.271Z,45.80
2022-08-03T12:52:22.727Z,45.10
2022-08-03T12:54:56.943Z,45.60
2022-08-03T12:57:24.224Z,45.50
2022-08-03T12:59:55.948Z,45.90
2022-08-03T13:02:25.564Z,46.00
2022-08-03T13:04:54.467Z,46.20
2022-08-03T13:07:22.683Z,45.80
2022-08-03T13:09:55.685Z,45.40
2022-08-03T13:12:24.891Z,45.40
2022-08-03T13:15:01.227Z,45.20
2022-08-03T13:17:28.322Z,45.20
2022-08-03T13:19:56.290Z,45.40
2022-08-03T13:22:30.444Z,45.30
2022-08-03T13:24:57.763Z,45.30
2022-08-03T13:28:03.863Z,45.70
2022-08-03T13:30:12.773Z,45.10
2022-08-03T13:32:40.207Z,45.00
2022-08-03T13:35:08.614Z,45.00
2022-08-03T13:37:36.213Z,45.80
2022-08-03T13:40:05.992Z,44.90
2022-08-03T13:42:34.647Z,44.80
2022-08-03T13:45:02.448Z,44.50
2022-08-03T13:47:29.393Z,45.30
2022-08-03T13:50:01.468Z,45.30
2022-08-03T13:52:31.273Z,45.00
2022-08-03T13:54:58.769Z,45.10
2022-08-03T13:58:06.378Z,45.00
2022-08-03T14:00:13.130Z,44.80
2022-08-03T14:02:55.323Z,44.50
2022-08-03T14:05:25.423Z,44.70
2022-08-03T14:07:52.384Z,45.00
2022-08-03T14:10:25.111Z,45.30
2022-08-03T14:12:52.191Z,45.20
2022-08-03T14:15:19.085Z,44.30
2022-08-03T14:17:50.030Z,44.20
2022-08-03T14:20:36.645Z,44.60
2022-08-03T14:23:04.186Z,44.80
2022-08-03T14:25:43.246Z,44.80
2022-08-03T14:28:17.515Z,44.60
2022-08-03T14:30:44.406Z,44.50
2022-08-03T14:33:11.345Z,44.40
2022-08-03T14:35:38.253Z,44.40
2022-08-03T14:38:05.152Z,44.50
2022-08-03T14:40:32.307Z,44.90
2022-08-03T14:42:59.218Z,44.10
2022-08-03T14:45:26.090Z,44.00
2022-08-03T14:50:28.672Z,43.90
2022-08-03T14:50:44.423Z,44.50
2022-08-03T14:53:17.560Z,44.30
2022-08-03T14:55:50.334Z,44.00
2022-08-03T14:58:25.955Z,44.10
2022-08-03T15:00:54.827Z,44.10
2022-08-03T15:03:25.725Z,44.50
2022-08-03T15:05:54.536Z,44.40
2022-08-03T15:08:23.095Z,44.20
2022-08-03T15:10:50.806Z,44.10
2022-08-03T15:13:18.584Z,43.90
2022-08-03T15:15:46.110Z,43.70
2022-08-03T15:18:13.015Z,44.00
2022-08-03T15:20:44.975Z,44.10
2022-08-03T15:23:14.865Z,44.00
2022-08-03T15:26:28.679Z,44.50
2022-08-03T15:28:29.828Z,43.70
2022-08-03T15:30:56.948Z,43.60
2022-08-03T15:33:23.804Z,44.00
2022-08-03T15:35:50.793Z,43.30
2022-08-03T15:38:17.670Z,43.80
2022-08-03T15:40:44.894Z,44.60
2022-08-03T15:43:11.864Z,44.00
2022-08-03T15:45:40.576Z,44.50
2022-08-03T15:48:09.012Z,44.90
2022-08-03T15:50:35.931Z,45.00
2022-08-03T15:53:03.424Z,44.90
2022-08-03T15:55:31.111Z,45.30
2022-08-03T15:59:10.430Z,44.70
2022-08-03T16:00:45.242Z,44.60
2022-08-03T16:03:12.136Z,44.90
2022-08-03T16:05:39.056Z,45.00
2022-08-03T16:08:10.302Z,45.30
2022-08-03T16:10:40.658Z,45.00
2022-08-03T16:13:07.881Z,45.40
2022-08-03T16:15:38.522Z,44.90
2022-08-03T16:18:08.976Z,45.10
2022-08-03T16:20:35.889Z,45.00
2022-08-03T16:23:10.574Z,45.30
2022-08-03T16:25:42.799Z,45.30
2022-08-03T16:28:14.364Z,45.60
2022-08-03T16:30:42.706Z,45.10
2022-08-03T16:33:10.709Z,45.40
2022-08-03T16:35:37.963Z,45.30
2022-08-03T16:38:09.930Z,45.70
2022-08-03T16:40:38.065Z,45.20
2022-08-03T16:43:18.623Z,45.30
2022-08-03T16:45:49.471Z,45.30
2022-08-03T16:48:17.538Z,45.50
2022-08-03T16:50:44.964Z,44.90
2022-08-03T16:53:16.948Z,45.50
2022-08-03T16:55:53.267Z,44.90
2022-08-03T16:58:41.204Z,45.50
2022-08-03T17:01:21.733Z,45.40
2022-08-03T17:04:01.688Z,44.90
2022-08-03T17:06:37.006Z,44.80
2022-08-03T17:09:14.819Z,45.20
2022-08-03T17:11:47.806Z,45.10
2022-08-03T17:14:22.557Z,45.00
2022-08-03T17:16:53.874Z,45.20
2022-08-03T17:19:23.722Z,45.10
2022-08-03T17:22:12.246Z,45.30
2022-08-03T17:24:44.358Z,45.90
2022-08-03T17:28:41.310Z,45.30
2022-08-03T17:30:07.760Z,45.50
2022-08-03T17:32:42.253Z,45.70
2022-08-03T17:35:10.767Z,45.20
2022-08-03T17:37:57.830Z,45.50
2022-08-03T17:40:25.641Z,45.70
2022-08-03T17:42:53.218Z,46.30
2022-08-03T17:45:20.516Z,46.20
2022-08-03T17:47:57.644Z,46.20
2022-08-03T17:50:33.486Z,46.10
2022-08-03T17:53:15.448Z,46.20
2022-08-03T17:56:42.583Z,46.50
2022-08-03T17:59:01.763Z,46.50
2022-08-03T18:02:22.275Z,46.80
2022-08-03T18:05:16.483Z,47.20
2022-08-03T18:07:58.321Z,47.60
2022-08-03T18:10:34.222Z,48.00
2022-08-03T18:13:10.865Z,47.90
2022-08-03T18:15:50.723Z,48.30
2022-08-03T18:18:32.354Z,48.60
2022-08-03T18:21:06.568Z,48.70
2022-08-03T18:23:37.665Z,49.00
2022-08-03T18:26:10.671Z,48.90
2022-08-03T18:28:40.541Z,49.20
2022-08-03T18:31:11.653Z,49.20
2022-08-03T18:34:19.087Z,49.30
2022-08-03T18:36:30.431Z,49.40
2022-08-03T18:38:59.750Z,49.40
2022-08-03T18:41:32.754Z,49.60
2022-08-03T18:44:08.886Z,49.60
2022-08-03T18:46:59.351Z,49.80
2022-08-03T18:49:42.542Z,49.90
2022-08-03T18:52:21.620Z,49.80
2022-08-03T18:55:03.841Z,49.80
2022-08-03T19:00:42.631Z,50.00
2022-08-03T19:03:24.825Z,50.00
2022-08-03T19:06:02.678Z,50.30
2022-08-03T19:08:54.224Z,51.90
2022-08-03T19:11:29.333Z,52.60
2022-08-03T19:14:22.234Z,53.40
2022-08-03T19:17:07.265Z,54.40
2022-08-03T19:19:43.413Z,54.10
2022-08-03T19:22:16.264Z,53.90
2022-08-03T19:24:46.168Z,53.90
2022-08-03T19:27:14.186Z,53.80
2022-08-03T19:29:58.526Z,53.70
2022-08-03T19:32:31.085Z,54.10
2022-08-03T19:35:00.753Z,54.20
2022-08-03T19:37:38.217Z,54.40
2022-08-03T19:40:10.274Z,54.90
2022-08-03T19:42:44.465Z,55.80
2022-08-03T19:45:15.514Z,56.30
2022-08-03T19:47:51.995Z,56.20
2022-08-03T19:50:20.497Z,55.60
2022-08-03T19:52:49.660Z,55.70
2022-08-03T19:55:17.770Z,55.90
2022-08-03T19:57:49.214Z,56.40
2022-08-03T20:00:19.983Z,56.50
2022-08-03T20:02:53.645Z,56.60
2022-08-03T20:05:20.701Z,56.80
2022-08-03T20:07:50.636Z,57.50
2022-08-03T20:10:19.516Z,58.10
2022-08-03T20:12:48.521Z,58.00
2022-08-03T20:15:22.248Z,58.30
2022-08-03T20:17:59.103Z,58.70
2022-08-03T20:20:32.146Z,57.50
2022-08-03T20:23:02.264Z,56.80
2022-08-03T20:25:39.526Z,56.10
2022-08-03T20:28:50.103Z,56.60
2022-08-03T20:31:19.253Z,56.60
2022-08-03T20:33:49.277Z,56.30
2022-08-03T20:36:17.787Z,57.80
2022-08-03T20:38:47.685Z,58.20
2022-08-03T20:41:16.093Z,58.40
2022-08-03T20:43:43.197Z,58.10
2022-08-03T20:46:32.890Z,57.70
2022-08-03T20:48:58.779Z,58.20
2022-08-03T20:51:49.088Z,58.50
2022-08-03T20:54:28.780Z,58.30
2022-08-03T20:56:58.325Z,58.90
2022-08-03T20:59:36.574Z,58.60
2022-08-03T21:02:05.917Z,58.20
2022-08-03T21:04:32.831Z,57.90
2022-08-03T21:09:59.012Z,57.60
2022-08-03T21:13:08.029Z,57.80
2022-08-03T21:13:10.856Z,49.70
2022-08-03T21:16:04.781Z,58.50
2022-08-03T21:18:45.805Z,58.70
2022-08-03T21:21:15.895Z,58.60
2022-08-03T21:23:48.884Z,59.80
2022-08-03T21:26:19.057Z,59.30
2022-08-03T21:28:48.130Z,59.40
2022-08-03T21:31:22.312Z,59.20
2022-08-03T21:34:00.795Z,58.80
2022-08-03T21:36:31.594Z,58.10
2022-08-03T21:38:59.572Z,58.50
2022-08-03T21:41:32.091Z,58.60
2022-08-03T21:44:00.251Z,59.70
2022-08-03T21:46:30.062Z,58.80
2022-08-03T21:50:05.504Z,59.40
2022-08-03T21:51:50.379Z,59.40
2022-08-03T21:54:20.036Z,58.70
2022-08-03T21:56:50.970Z,59.30
2022-08-03T21:59:19.763Z,58.70
2022-08-03T22:01:49.145Z,58.70
2022-08-03T22:04:53.102Z,58.50
2022-08-03T22:07:08.511Z,58.30
2022-08-03T22:09:36.959Z,59.20
2022-08-03T22:12:04.686Z,59.90
2022-08-03T22:14:35.044Z,60.30
2022-08-03T22:17:06.281Z,60.80
2022-08-03T22:19:34.186Z,61.20
2022-08-03T22:22:04.552Z,60.30
2022-08-03T22:24:35.045Z,60.00
2022-08-03T22:27:21.885Z,60.30
2022-08-03T22:29:50.583Z,59.80
2022-08-03T22:32:17.498Z,60.40
2022-08-03T22:34:46.982Z,60.70
2022-08-03T22:37:16.701Z,60.50
2022-08-03T22:39:44.736Z,60.30
2022-08-03T22:42:11.771Z,60.10
2022-08-03T22:44:39.409Z,59.70
2022-08-03T22:47:06.479Z,58.50
2022-08-03T22:49:35.195Z,59.10
2022-08-03T22:52:02.627Z,59.60
2022-08-03T22:54:32.696Z,59.70
2022-08-03T22:56:59.754Z,59.30
2022-08-03T22:59:41.295Z,58.80
2022-08-03T23:02:20.200Z,58.90
2022-08-03T23:04:51.693Z,59.90
2022-08-03T23:07:30.097Z,59.70
2022-08-03T23:09:58.146Z,59.60
2022-08-03T23:12:25.319Z,59.80
2022-08-03T23:14:55.045Z,59.20
2022-08-03T23:17:23.809Z,60.30
2022-08-03T23:19:52.600Z,60.00
2022-08-03T23:22:29.420Z,58.80
2022-08-03T23:24:58.627Z,60.20
2022-08-03T23:27:27.657Z,59.70
2022-08-03T23:29:56.944Z,59.50
2022-08-03T23:32:26.381Z,60.20
2022-08-03T23:35:14.897Z,59.80
2022-08-03T23:38:03.926Z,60.20
2022-08-03T23:40:30.913Z,60.40
2022-08-03T23:42:59.257Z,60.20
2022-08-03T23:45:27.910Z,60.00
2022-08-03T23:47:54.905Z,59.60
2022-08-03T23:50:22.251Z,59.40
2022-08-03T23:53:10.519Z,60.00
2022-08-03T23:55:46.830Z,60.00
2022-08-03T23:58:20.415Z,60.00
